sensor_id;sensor_type;location;lat;lon;timestamp;temperature;humidity
21459;DHT22;10891;49.350;19.386;2022-09-20T00:00:16;8.20;99.90
21459;DHT22;10891;49.350;19.386;2022-09-20T00:02:43;8.00;99.90
21459;DHT22;10891;49.350;19.386;2022-09-20T00:05:10;7.90;99.90
21459;DHT22;10891;49.350;19.386;2022-09-20T00:07:36;7.90;99.90
21459;DHT22;10891;49.350;19.386;2022-09-20T00:10:04;7.80;99.90
21459;DHT22;10891;49.350;19.386;2022-09-20T00:12:32;7.80;99.90
21459;DHT22;10891;49.350;19.386;2022-09-20T00:14:59;7.80;99.90
21459;DHT22;10891;49.350;19.386;2022-09-20T00:17:26;7.90;99.90
21459;DHT22;10891;49.350;19.386;2022-09-20T00:19:52;8.00;99.90
21459;DHT22;10891;49.350;19.386;2022-09-20T00:22:19;8.10;99.90
21459;DHT22;10891;49.350;19.386;2022-09-20T00:24:46;8.10;99.90
21459;DHT22;10891;49.350;19.386;2022-09-20T00:27:13;8.20;99.90
21459;DHT22;10891;49.350;19.386;2022-09-20T00:29:41;8.20;99.90
21459;DHT22;10891;49.350;19.386;2022-09-20T00:32:08;8.20;99.90
21459;DHT22;10891;49.350;19.386;2022-09-20T00:34:35;8.30;99.90
21459;DHT22;10891;49.350;19.386;2022-09-20T00:37:19;8.30;99.90
21459;DHT22;10891;49.350;19.386;2022-09-20T00:39:46;8.20;99.90
21459;DHT22;10891;49.350;19.386;2022-09-20T00:42:13;8.20;99.90
21459;DHT22;10891;49.350;19.386;2022-09-20T00:44:56;8.20;99.90
21459;DHT22;10891;49.350;19.386;2022-09-20T00:47:28;8.30;99.90
21459;DHT22;10891;49.350;19.386;2022-09-20T00:50:02;8.40;99.90
21459;DHT22;10891;49.350;19.386;2022-09-20T00:52:30;8.40;99.90
21459;DHT22;10891;49.350;19.386;2022-09-20T00:54:58;8.50;99.90
21459;DHT22;10891;49.350;19.386;2022-09-20T00:57:26;8.40;99.90
21459;DHT22;10891;49.350;19.386;2022-09-20T00:59:54;8.50;99.90
21459;DHT22;10891;49.350;19.386;2022-09-20T01:02:24;8.50;99.90
21459;DHT22;10891;49.350;19.386;2022-09-20T01:04:51;8.50;99.90
21459;DHT22;10891;49.350;19.386;2022-09-20T01:07:20;8.60;99.90
21459;DHT22;10891;49.350;19.386;2022-09-20T01:09:48;8.60;99.90
21459;DHT22;10891;49.350;19.386;2022-09-20T01:12:18;8.70;99.90
21459;DHT22;10891;49.350;19.386;2022-09-20T01:14:47;8.70;99.90
21459;DHT22;10891;49.350;19.386;2022-09-20T01:17:17;8.50;99.90
21459;DHT22;10891;49.350;19.386;2022-09-20T01:19:52;8.40;99.90
21459;DHT22;10891;49.350;19.386;2022-09-20T01:22:28;8.50;99.90
21459;DHT22;10891;49.350;19.386;2022-09-20T01:25:06;8.50;99.90
21459;DHT22;10891;49.350;19.386;2022-09-20T01:27:40;8.50;99.90
21459;DHT22;10891;49.350;19.386;2022-09-20T01:30:10;8.50;99.90
21459;DHT22;10891;49.350;19.386;2022-09-20T01:32:49;8.60;99.90
21459;DHT22;10891;49.350;19.386;2022-09-20T01:35:18;8.50;99.90
21459;DHT22;10891;49.350;19.386;2022-09-20T01:37:57;8.50;99.90
21459;DHT22;10891;49.350;19.386;2022-09-20T01:40:32;8.50;99.90
21459;DHT22;10891;49.350;19.386;2022-09-20T01:43:08;8.50;99.90
21459;DHT22;10891;49.350;19.386;2022-09-20T01:45:45;8.60;99.90
21459;DHT22;10891;49.350;19.386;2022-09-20T01:48:17;8.50;99.90
21459;DHT22;10891;49.350;19.386;2022-09-20T01:54:32;8.40;99.90
21459;DHT22;10891;49.350;19.386;2022-09-20T02:00:14;8.50;99.90
21459;DHT22;10891;49.350;19.386;2022-09-20T02:06:09;8.70;99.90
21459;DHT22;10891;49.350;19.386;2022-09-20T02:09:01;8.80;99.90
21459;DHT22;10891;49.350;19.386;2022-09-20T02:11:41;8.90;99.90
21459;DHT22;10891;49.350;19.386;2022-09-20T02:14:31;8.90;99.90
21459;DHT22;10891;49.350;19.386;2022-09-20T02:17:09;8.90;99.90
21459;DHT22;10891;49.350;19.386;2022-09-20T02:19:53;8.80;99.90
21459;DHT22;10891;49.350;19.386;2022-09-20T02:22:35;8.70;99.90
21459;DHT22;10891;49.350;19.386;2022-09-20T02:25:14;8.60;99.90
21459;DHT22;10891;49.350;19.386;2022-09-20T02:27:57;8.40;99.90
21459;DHT22;10891;49.350;19.386;2022-09-20T02:30:34;8.30;99.90
21459;DHT22;10891;49.350;19.386;2022-09-20T02:33:16;8.30;99.90
21459;DHT22;10891;49.350;19.386;2022-09-20T02:36:02;8.30;99.90
21459;DHT22;10891;49.350;19.386;2022-09-20T02:38:44;8.30;99.90
21459;DHT22;10891;49.350;19.386;2022-09-20T02:41:53;8.40;99.90
21459;DHT22;10891;49.350;19.386;2022-09-20T02:44:28;8.40;99.90
21459;DHT22;10891;49.350;19.386;2022-09-20T02:47:05;8.50;99.90
21459;DHT22;10891;49.350;19.386;2022-09-20T02:49:44;8.50;99.90
21459;DHT22;10891;49.350;19.386;2022-09-20T02:52:27;8.50;99.90
21459;DHT22;10891;49.350;19.386;2022-09-20T02:55:00;8.50;99.90
21459;DHT22;10891;49.350;19.386;2022-09-20T02:57:35;8.50;99.90
21459;DHT22;10891;49.350;19.386;2022-09-20T03:00:13;8.50;99.90
21459;DHT22;10891;49.350;19.386;2022-09-20T03:02:49;8.50;99.90
21459;DHT22;10891;49.350;19.386;2022-09-20T03:05:24;8.60;99.90
21459;DHT22;10891;49.350;19.386;2022-09-20T03:08:07;8.60;99.90
21459;DHT22;10891;49.350;19.386;2022-09-20T03:10:42;8.60;99.90
21459;DHT22;10891;49.350;19.386;2022-09-20T03:13:19;8.60;99.90
21459;DHT22;10891;49.350;19.386;2022-09-20T03:15:56;8.60;99.90
21459;DHT22;10891;49.350;19.386;2022-09-20T03:18:33;8.70;99.90
21459;DHT22;10891;49.350;19.386;2022-09-20T03:21:20;8.70;99.90
21459;DHT22;10891;49.350;19.386;2022-09-20T03:23:56;8.60;99.90
21459;DHT22;10891;49.350;19.386;2022-09-20T03:26:34;8.50;99.90
21459;DHT22;10891;49.350;19.386;2022-09-20T03:29:11;8.50;99.90
21459;DHT22;10891;49.350;19.386;2022-09-20T03:31:49;8.50;99.90
21459;DHT22;10891;49.350;19.386;2022-09-20T03:34:32;8.50;99.90
21459;DHT22;10891;49.350;19.386;2022-09-20T03:37:18;8.60;99.90
21459;DHT22;10891;49.350;19.386;2022-09-20T03:42:48;8.70;99.90
21459;DHT22;10891;49.350;19.386;2022-09-20T03:45:35;8.70;99.90
21459;DHT22;10891;49.350;19.386;2022-09-20T03:48:29;8.80;99.90
21459;DHT22;10891;49.350;19.386;2022-09-20T03:51:26;8.80;99.90
21459;DHT22;10891;49.350;19.386;2022-09-20T03:54:17;8.80;99.90
21459;DHT22;10891;49.350;19.386;2022-09-20T03:57:08;8.80;99.90
21459;DHT22;10891;49.350;19.386;2022-09-20T03:59:58;8.70;99.90
21459;DHT22;10891;49.350;19.386;2022-09-20T04:02:39;8.70;99.90
21459;DHT22;10891;49.350;19.386;2022-09-20T04:05:11;8.70;99.90
21459;DHT22;10891;49.350;19.386;2022-09-20T04:07:49;8.80;99.90
21459;DHT22;10891;49.350;19.386;2022-09-20T04:10:28;8.70;99.90
21459;DHT22;10891;49.350;19.386;2022-09-20T04:13:10;8.60;99.90
21459;DHT22;10891;49.350;19.386;2022-09-20T04:15:45;8.50;99.90
21459;DHT22;10891;49.350;19.386;2022-09-20T04:18:22;8.50;99.90
21459;DHT22;10891;49.350;19.386;2022-09-20T04:20:58;8.40;99.90
21459;DHT22;10891;49.350;19.386;2022-09-20T04:23:33;8.40;99.90
21459;DHT22;10891;49.350;19.386;2022-09-20T04:26:03;8.40;99.90
21459;DHT22;10891;49.350;19.386;2022-09-20T04:28:34;8.40;99.90
21459;DHT22;10891;49.350;19.386;2022-09-20T04:31:13;8.50;99.90
21459;DHT22;10891;49.350;19.386;2022-09-20T04:33:46;8.50;99.90
21459;DHT22;10891;49.350;19.386;2022-09-20T04:36:30;8.50;99.90
21459;DHT22;10891;49.350;19.386;2022-09-20T04:39:09;8.50;99.90
21459;DHT22;10891;49.350;19.386;2022-09-20T04:44:58;8.50;99.90
21459;DHT22;10891;49.350;19.386;2022-09-20T04:51:08;8.50;99.90
21459;DHT22;10891;49.350;19.386;2022-09-20T04:53:56;8.60;99.90
21459;DHT22;10891;49.350;19.386;2022-09-20T04:56:40;8.60;99.90
21459;DHT22;10891;49.350;19.386;2022-09-20T04:59:20;8.60;99.90
21459;DHT22;10891;49.350;19.386;2022-09-20T05:05:36;8.50;99.90
21459;DHT22;10891;49.350;19.386;2022-09-20T05:11:47;8.30;99.90
21459;DHT22;10891;49.350;19.386;2022-09-20T05:17:45;8.50;99.90
21459;DHT22;10891;49.350;19.386;2022-09-20T05:20:40;8.50;99.90
21459;DHT22;10891;49.350;19.386;2022-09-20T05:26:16;8.60;99.90
21459;DHT22;10891;49.350;19.386;2022-09-20T05:28:52;8.60;99.90
21459;DHT22;10891;49.350;19.386;2022-09-20T05:31:29;8.60;99.90
21459;DHT22;10891;49.350;19.386;2022-09-20T05:34:13;8.60;99.90
21459;DHT22;10891;49.350;19.386;2022-09-20T05:36:50;8.60;99.90
21459;DHT22;10891;49.350;19.386;2022-09-20T05:39:31;8.80;99.90
21459;DHT22;10891;49.350;19.386;2022-09-20T05:42:08;9.00;99.90
21459;DHT22;10891;49.350;19.386;2022-09-20T05:44:55;9.20;99.90
21459;DHT22;10891;49.350;19.386;2022-09-20T05:47:31;9.30;99.90
21459;DHT22;10891;49.350;19.386;2022-09-20T05:53:36;9.50;99.90
21459;DHT22;10891;49.350;19.386;2022-09-20T05:56:15;9.70;99.90
21459;DHT22;10891;49.350;19.386;2022-09-20T05:58:54;9.90;99.90
21459;DHT22;10891;49.350;19.386;2022-09-20T06:01:30;9.90;99.90
21459;DHT22;10891;49.350;19.386;2022-09-20T06:04:11;10.00;99.90
21459;DHT22;10891;49.350;19.386;2022-09-20T06:06:51;10.00;99.90
21459;DHT22;10891;49.350;19.386;2022-09-20T06:09:51;10.10;99.90
21459;DHT22;10891;49.350;19.386;2022-09-20T06:12:40;10.10;99.90
21459;DHT22;10891;49.350;19.386;2022-09-20T06:15:23;10.00;99.90
21459;DHT22;10891;49.350;19.386;2022-09-20T06:17:58;10.00;99.90
21459;DHT22;10891;49.350;19.386;2022-09-20T06:20:32;10.10;99.90
21459;DHT22;10891;49.350;19.386;2022-09-20T06:23:03;10.40;99.90
21459;DHT22;10891;49.350;19.386;2022-09-20T06:25:36;10.60;99.90
21459;DHT22;10891;49.350;19.386;2022-09-20T06:28:11;10.80;99.90
21459;DHT22;10891;49.350;19.386;2022-09-20T06:30:42;10.90;99.90
21459;DHT22;10891;49.350;19.386;2022-09-20T06:33:14;11.00;99.90
21459;DHT22;10891;49.350;19.386;2022-09-20T06:35:46;11.30;99.90
21459;DHT22;10891;49.350;19.386;2022-09-20T06:38:30;11.70;99.90
21459;DHT22;10891;49.350;19.386;2022-09-20T06:41:19;12.00;99.90
21459;DHT22;10891;49.350;19.386;2022-09-20T06:43:53;12.00;99.90
21459;DHT22;10891;49.350;19.386;2022-09-20T06:46:23;11.80;99.90
21459;DHT22;10891;49.350;19.386;2022-09-20T06:48:50;11.70;99.90
21459;DHT22;10891;49.350;19.386;2022-09-20T06:51:17;11.90;99.90
21459;DHT22;10891;49.350;19.386;2022-09-20T06:53:45;12.00;99.90
21459;DHT22;10891;49.350;19.386;2022-09-20T06:56:15;12.10;99.90
21459;DHT22;10891;49.350;19.386;2022-09-20T06:58:43;12.20;99.90
21459;DHT22;10891;49.350;19.386;2022-09-20T07:01:10;11.70;99.90
21459;DHT22;10891;49.350;19.386;2022-09-20T07:03:38;11.40;99.90
21459;DHT22;10891;49.350;19.386;2022-09-20T07:06:05;11.30;99.90
21459;DHT22;10891;49.350;19.386;2022-09-20T07:08:32;11.10;99.90
21459;DHT22;10891;49.350;19.386;2022-09-20T07:11:04;11.00;99.90
21459;DHT22;10891;49.350;19.386;2022-09-20T07:13:31;10.70;99.90
21459;DHT22;10891;49.350;19.386;2022-09-20T07:16:02;10.70;99.90
21459;DHT22;10891;49.350;19.386;2022-09-20T07:18:29;11.10;99.90
21459;DHT22;10891;49.350;19.386;2022-09-20T07:20:58;11.10;99.90
21459;DHT22;10891;49.350;19.386;2022-09-20T07:23:25;11.10;99.90
21459;DHT22;10891;49.350;19.386;2022-09-20T07:25:52;11.00;99.90
21459;DHT22;10891;49.350;19.386;2022-09-20T07:28:20;11.00;99.90
21459;DHT22;10891;49.350;19.386;2022-09-20T07:30:47;11.00;99.90
21459;DHT22;10891;49.350;19.386;2022-09-20T07:33:14;11.20;99.90
21459;DHT22;10891;49.350;19.386;2022-09-20T07:35:46;11.50;99.90
21459;DHT22;10891;49.350;19.386;2022-09-20T07:38:14;11.30;99.90
21459;DHT22;10891;49.350;19.386;2022-09-20T07:40:41;11.10;99.90
21459;DHT22;10891;49.350;19.386;2022-09-20T07:43:09;10.80;99.90
21459;DHT22;10891;49.350;19.386;2022-09-20T07:45:37;10.60;99.90
21459;DHT22;10891;49.350;19.386;2022-09-20T07:48:05;10.60;99.90
21459;DHT22;10891;49.350;19.386;2022-09-20T07:50:34;10.70;99.90
21459;DHT22;10891;49.350;19.386;2022-09-20T07:53:01;10.80;99.90
21459;DHT22;10891;49.350;19.386;2022-09-20T07:55:29;10.90;99.90
21459;DHT22;10891;49.350;19.386;2022-09-20T07:57:56;11.30;99.90
21459;DHT22;10891;49.350;19.386;2022-09-20T08:00:23;11.70;99.90
21459;DHT22;10891;49.350;19.386;2022-09-20T08:02:58;12.10;99.90
21459;DHT22;10891;49.350;19.386;2022-09-20T08:05:25;12.40;99.90
21459;DHT22;10891;49.350;19.386;2022-09-20T08:07:53;12.70;99.90
21459;DHT22;10891;49.350;19.386;2022-09-20T08:10:20;12.70;99.90
21459;DHT22;10891;49.350;19.386;2022-09-20T08:12:47;12.90;99.90
21459;DHT22;10891;49.350;19.386;2022-09-20T08:15:15;12.60;99.90
21459;DHT22;10891;49.350;19.386;2022-09-20T08:17:46;12.30;99.90
21459;DHT22;10891;49.350;19.386;2022-09-20T08:20:14;11.20;99.90
21459;DHT22;10891;49.350;19.386;2022-09-20T08:22:41;10.20;99.90
21459;DHT22;10891;49.350;19.386;2022-09-20T08:25:09;9.30;99.90
21459;DHT22;10891;49.350;19.386;2022-09-20T08:27:36;8.40;99.90
21459;DHT22;10891;49.350;19.386;2022-09-20T08:30:03;8.10;99.90
21459;DHT22;10891;49.350;19.386;2022-09-20T08:32:30;8.10;99.90
21459;DHT22;10891;49.350;19.386;2022-09-20T08:34:58;8.00;99.90
21459;DHT22;10891;49.350;19.386;2022-09-20T08:37:26;8.10;99.90
21459;DHT22;10891;49.350;19.386;2022-09-20T08:39:53;8.50;99.90
21459;DHT22;10891;49.350;19.386;2022-09-20T08:42:25;8.90;99.90
21459;DHT22;10891;49.350;19.386;2022-09-20T08:44:56;9.40;99.90
21459;DHT22;10891;49.350;19.386;2022-09-20T08:47:26;9.50;99.90
21459;DHT22;10891;49.350;19.386;2022-09-20T08:49:53;9.90;99.90
21459;DHT22;10891;49.350;19.386;2022-09-20T08:52:26;10.50;99.90
21459;DHT22;10891;49.350;19.386;2022-09-20T08:54:54;10.80;99.90
21459;DHT22;10891;49.350;19.386;2022-09-20T08:57:26;11.10;99.90
21459;DHT22;10891;49.350;19.386;2022-09-20T08:59:54;11.10;99.90
21459;DHT22;10891;49.350;19.386;2022-09-20T09:02:21;11.30;99.90
21459;DHT22;10891;49.350;19.386;2022-09-20T09:04:48;11.50;99.90
21459;DHT22;10891;49.350;19.386;2022-09-20T09:07:19;11.70;99.90
21459;DHT22;10891;49.350;19.386;2022-09-20T09:09:50;11.80;99.90
21459;DHT22;10891;49.350;19.386;2022-09-20T09:12:20;11.40;99.90
21459;DHT22;10891;49.350;19.386;2022-09-20T09:14:49;10.80;99.90
21459;DHT22;10891;49.350;19.386;2022-09-20T09:17:21;10.20;99.90
21459;DHT22;10891;49.350;19.386;2022-09-20T09:19:50;9.70;99.90
21459;DHT22;10891;49.350;19.386;2022-09-20T09:22:20;9.70;99.90
21459;DHT22;10891;49.350;19.386;2022-09-20T09:25:24;9.70;99.90
21459;DHT22;10891;49.350;19.386;2022-09-20T09:27:53;9.80;99.90
21459;DHT22;10891;49.350;19.386;2022-09-20T09:30:23;10.10;99.90
21459;DHT22;10891;49.350;19.386;2022-09-20T09:32:51;9.90;99.90
21459;DHT22;10891;49.350;19.386;2022-09-20T09:35:25;9.40;99.90
21459;DHT22;10891;49.350;19.386;2022-09-20T09:37:54;9.30;99.90
21459;DHT22;10891;49.350;19.386;2022-09-20T09:40:24;9.20;99.90
21459;DHT22;10891;49.350;19.386;2022-09-20T09:42:52;9.20;99.90
21459;DHT22;10891;49.350;19.386;2022-09-20T09:45:28;9.00;99.90
21459;DHT22;10891;49.350;19.386;2022-09-20T09:47:57;9.00;99.90
21459;DHT22;10891;49.350;19.386;2022-09-20T09:50:28;8.80;99.90
21459;DHT22;10891;49.350;19.386;2022-09-20T09:52:57;9.10;99.90
21459;DHT22;10891;49.350;19.386;2022-09-20T09:55:34;9.90;99.90
21459;DHT22;10891;49.350;19.386;2022-09-20T09:58:10;10.60;99.90
21459;DHT22;10891;49.350;19.386;2022-09-20T10:00:41;11.00;99.90
21459;DHT22;10891;49.350;19.386;2022-09-20T10:03:29;11.10;99.90
21459;DHT22;10891;49.350;19.386;2022-09-20T10:06:06;11.10;99.90
21459;DHT22;10891;49.350;19.386;2022-09-20T10:08:42;10.90;99.90
21459;DHT22;10891;49.350;19.386;2022-09-20T10:11:22;10.70;99.90
21459;DHT22;10891;49.350;19.386;2022-09-20T10:14:02;10.50;99.90
21459;DHT22;10891;49.350;19.386;2022-09-20T10:16:45;10.20;99.90
21459;DHT22;10891;49.350;19.386;2022-09-20T10:19:21;10.40;99.90
21459;DHT22;10891;49.350;19.386;2022-09-20T10:21:57;10.70;99.90
21459;DHT22;10891;49.350;19.386;2022-09-20T10:24:32;10.20;99.90
21459;DHT22;10891;49.350;19.386;2022-09-20T10:27:21;9.80;99.90
21459;DHT22;10891;49.350;19.386;2022-09-20T10:30:00;10.10;99.90
21459;DHT22;10891;49.350;19.386;2022-09-20T10:32:40;10.00;99.90
21459;DHT22;10891;49.350;19.386;2022-09-20T10:35:21;10.00;99.90
21459;DHT22;10891;49.350;19.386;2022-09-20T10:38:05;10.10;99.90
21459;DHT22;10891;49.350;19.386;2022-09-20T10:40:44;10.10;99.90
21459;DHT22;10891;49.350;19.386;2022-09-20T10:43:42;10.20;99.90
21459;DHT22;10891;49.350;19.386;2022-09-20T10:46:17;10.50;99.90
21459;DHT22;10891;49.350;19.386;2022-09-20T10:48:56;10.50;99.90
21459;DHT22;10891;49.350;19.386;2022-09-20T10:51:33;10.50;99.90
21459;DHT22;10891;49.350;19.386;2022-09-20T10:54:07;10.70;99.90
21459;DHT22;10891;49.350;19.386;2022-09-20T10:56:36;11.30;99.90
21459;DHT22;10891;49.350;19.386;2022-09-20T10:59:23;11.30;99.90
21459;DHT22;10891;49.350;19.386;2022-09-20T11:02:01;11.40;99.90
21459;DHT22;10891;49.350;19.386;2022-09-20T11:04:46;11.50;99.90
21459;DHT22;10891;49.350;19.386;2022-09-20T11:07:17;11.80;99.90
21459;DHT22;10891;49.350;19.386;2022-09-20T11:09:49;12.00;99.90
21459;DHT22;10891;49.350;19.386;2022-09-20T11:12:24;12.20;99.90
21459;DHT22;10891;49.350;19.386;2022-09-20T11:14:58;11.90;99.90
21459;DHT22;10891;49.350;19.386;2022-09-20T11:17:28;11.50;99.90
21459;DHT22;10891;49.350;19.386;2022-09-20T11:19:59;11.30;99.90
21459;DHT22;10891;49.350;19.386;2022-09-20T11:22:32;11.20;99.90
21459;DHT22;10891;49.350;19.386;2022-09-20T11:25:03;11.40;99.90
21459;DHT22;10891;49.350;19.386;2022-09-20T11:27:38;11.80;99.90
21459;DHT22;10891;49.350;19.386;2022-09-20T11:30:15;12.00;99.90
21459;DHT22;10891;49.350;19.386;2022-09-20T11:32:45;12.50;99.90
21459;DHT22;10891;49.350;19.386;2022-09-20T11:35:21;13.00;99.90
21459;DHT22;10891;49.350;19.386;2022-09-20T11:37:56;13.70;99.90
21459;DHT22;10891;49.350;19.386;2022-09-20T11:40:31;14.10;99.90
21459;DHT22;10891;49.350;19.386;2022-09-20T11:43:02;14.20;99.90
21459;DHT22;10891;49.350;19.386;2022-09-20T11:45:34;13.90;99.90
21459;DHT22;10891;49.350;19.386;2022-09-20T11:48:08;13.60;99.90
21459;DHT22;10891;49.350;19.386;2022-09-20T11:50:46;13.50;99.90
21459;DHT22;10891;49.350;19.386;2022-09-20T11:53:27;13.80;99.90
21459;DHT22;10891;49.350;19.386;2022-09-20T11:56:00;14.00;99.90
21459;DHT22;10891;49.350;19.386;2022-09-20T11:58:29;13.80;99.90
21459;DHT22;10891;49.350;19.386;2022-09-20T12:00:59;13.70;99.90
21459;DHT22;10891;49.350;19.386;2022-09-20T12:03:30;12.10;99.90
21459;DHT22;10891;49.350;19.386;2022-09-20T12:06:03;11.40;99.90
21459;DHT22;10891;49.350;19.386;2022-09-20T12:08:34;11.00;99.90
21459;DHT22;10891;49.350;19.386;2022-09-20T12:11:03;10.70;99.90
21459;DHT22;10891;49.350;19.386;2022-09-20T12:13:33;10.30;99.90
21459;DHT22;10891;49.350;19.386;2022-09-20T12:16:06;10.00;99.90
21459;DHT22;10891;49.350;19.386;2022-09-20T12:19:00;8.60;99.90
21459;DHT22;10891;49.350;19.386;2022-09-20T12:21:28;1.80;99.90
21459;DHT22;10891;49.350;19.386;2022-09-20T12:24:08;0.60;99.90
21459;DHT22;10891;49.350;19.386;2022-09-20T12:26:41;0.50;99.90
21459;DHT22;10891;49.350;19.386;2022-09-20T12:32:43;1.50;99.90
21459;DHT22;10891;49.350;19.386;2022-09-20T12:38:50;3.70;99.90
21459;DHT22;10891;49.350;19.386;2022-09-20T12:41:20;4.80;99.90
21459;DHT22;10891;49.350;19.386;2022-09-20T12:44:03;5.70;99.90
21459;DHT22;10891;49.350;19.386;2022-09-20T12:46:39;6.50;99.90
21459;DHT22;10891;49.350;19.386;2022-09-20T12:49:29;7.10;99.90
21459;DHT22;10891;49.350;19.386;2022-09-20T12:52:46;7.60;99.90
21459;DHT22;10891;49.350;19.386;2022-09-20T12:55:49;8.20;99.90
21459;DHT22;10891;49.350;19.386;2022-09-20T12:58:36;8.40;99.90
21459;DHT22;10891;49.350;19.386;2022-09-20T13:01:27;8.80;99.90
21459;DHT22;10891;49.350;19.386;2022-09-20T13:10:23;9.50;99.90
21459;DHT22;10891;49.350;19.386;2022-09-20T13:12:54;9.80;99.90
21459;DHT22;10891;49.350;19.386;2022-09-20T13:15:26;10.00;99.90
21459;DHT22;10891;49.350;19.386;2022-09-20T13:18:00;10.20;99.90
21459;DHT22;10891;49.350;19.386;2022-09-20T13:20:31;10.40;99.90
21459;DHT22;10891;49.350;19.386;2022-09-20T13:23:04;10.60;99.90
21459;DHT22;10891;49.350;19.386;2022-09-20T13:25:34;10.30;99.90
21459;DHT22;10891;49.350;19.386;2022-09-20T13:28:14;9.70;99.90
21459;DHT22;10891;49.350;19.386;2022-09-20T13:30:45;10.00;99.90
21459;DHT22;10891;49.350;19.386;2022-09-20T13:33:20;10.20;99.90
21459;DHT22;10891;49.350;19.386;2022-09-20T13:35:50;10.20;99.90
21459;DHT22;10891;49.350;19.386;2022-09-20T13:38:19;10.10;99.90
21459;DHT22;10891;49.350;19.386;2022-09-20T13:40:51;9.80;99.90
21459;DHT22;10891;49.350;19.386;2022-09-20T13:43:26;9.70;99.90
21459;DHT22;10891;49.350;19.386;2022-09-20T13:45:55;9.80;99.90
21459;DHT22;10891;49.350;19.386;2022-09-20T13:48:24;9.50;99.90
21459;DHT22;10891;49.350;19.386;2022-09-20T13:50:52;9.10;99.90
21459;DHT22;10891;49.350;19.386;2022-09-20T13:53:23;9.00;99.90
21459;DHT22;10891;49.350;19.386;2022-09-20T13:55:52;9.00;99.90
21459;DHT22;10891;49.350;19.386;2022-09-20T13:58:23;8.90;99.90
21459;DHT22;10891;49.350;19.386;2022-09-20T14:00:53;8.60;99.90
21459;DHT22;10891;49.350;19.386;2022-09-20T14:03:21;8.50;99.90
21459;DHT22;10891;49.350;19.386;2022-09-20T14:05:50;8.70;99.90
21459;DHT22;10891;49.350;19.386;2022-09-20T14:08:22;8.90;99.90
21459;DHT22;10891;49.350;19.386;2022-09-20T14:11:03;8.60;99.90
21459;DHT22;10891;49.350;19.386;2022-09-20T14:13:36;8.70;99.90
21459;DHT22;10891;49.350;19.386;2022-09-20T14:16:04;8.70;99.90
21459;DHT22;10891;49.350;19.386;2022-09-20T14:18:32;8.60;99.90
21459;DHT22;10891;49.350;19.386;2022-09-20T14:21:02;8.60;99.90
21459;DHT22;10891;49.350;19.386;2022-09-20T14:23:29;8.70;99.90
21459;DHT22;10891;49.350;19.386;2022-09-20T14:26:21;8.70;99.90
21459;DHT22;10891;49.350;19.386;2022-09-20T14:28:49;8.80;99.90
21459;DHT22;10891;49.350;19.386;2022-09-20T14:31:20;9.10;99.90
21459;DHT22;10891;49.350;19.386;2022-09-20T14:33:52;9.40;99.90
21459;DHT22;10891;49.350;19.386;2022-09-20T14:36:22;9.60;99.90
21459;DHT22;10891;49.350;19.386;2022-09-20T14:38:52;9.60;99.90
21459;DHT22;10891;49.350;19.386;2022-09-20T14:41:32;9.50;99.90
21459;DHT22;10891;49.350;19.386;2022-09-20T14:44:00;10.00;99.90
21459;DHT22;10891;49.350;19.386;2022-09-20T14:46:30;10.00;99.90
21459;DHT22;10891;49.350;19.386;2022-09-20T14:49:17;10.00;99.90
21459;DHT22;10891;49.350;19.386;2022-09-20T14:51:48;10.00;99.90
21459;DHT22;10891;49.350;19.386;2022-09-20T14:54:24;9.60;99.90
21459;DHT22;10891;49.350;19.386;2022-09-20T14:56:57;9.60;99.90
21459;DHT22;10891;49.350;19.386;2022-09-20T14:59:26;9.50;99.90
21459;DHT22;10891;49.350;19.386;2022-09-20T15:02:00;9.40;99.90
21459;DHT22;10891;49.350;19.386;2022-09-20T15:04:29;9.30;99.90
21459;DHT22;10891;49.350;19.386;2022-09-20T15:07:00;9.20;99.90
21459;DHT22;10891;49.350;19.386;2022-09-20T15:09:28;9.20;99.90
21459;DHT22;10891;49.350;19.386;2022-09-20T15:12:05;9.40;99.90
21459;DHT22;10891;49.350;19.386;2022-09-20T15:14:32;9.50;99.90
21459;DHT22;10891;49.350;19.386;2022-09-20T15:17:05;9.70;99.90
21459;DHT22;10891;49.350;19.386;2022-09-20T15:19:33;10.00;99.90
21459;DHT22;10891;49.350;19.386;2022-09-20T15:22:00;10.10;99.90
21459;DHT22;10891;49.350;19.386;2022-09-20T15:24:29;10.00;99.90
21459;DHT22;10891;49.350;19.386;2022-09-20T15:26:56;10.00;99.90
21459;DHT22;10891;49.350;19.386;2022-09-20T15:29:25;9.90;99.90
21459;DHT22;10891;49.350;19.386;2022-09-20T15:31:53;9.60;99.90
21459;DHT22;10891;49.350;19.386;2022-09-20T15:34:20;9.30;99.90
21459;DHT22;10891;49.350;19.386;2022-09-20T15:36:49;9.40;99.90
21459;DHT22;10891;49.350;19.386;2022-09-20T15:39:18;9.20;99.90
21459;DHT22;10891;49.350;19.386;2022-09-20T15:41:46;9.20;99.90
21459;DHT22;10891;49.350;19.386;2022-09-20T15:44:15;9.10;99.90
21459;DHT22;10891;49.350;19.386;2022-09-20T15:46:46;8.80;99.90
21459;DHT22;10891;49.350;19.386;2022-09-20T15:49:15;8.70;99.90
21459;DHT22;10891;49.350;19.386;2022-09-20T15:51:45;8.50;99.90
21459;DHT22;10891;49.350;19.386;2022-09-20T15:54:14;8.40;99.90
21459;DHT22;10891;49.350;19.386;2022-09-20T15:56:44;8.30;99.90
21459;DHT22;10891;49.350;19.386;2022-09-20T15:59:12;8.10;99.90
21459;DHT22;10891;49.350;19.386;2022-09-20T16:01:42;8.10;99.90
21459;DHT22;10891;49.350;19.386;2022-09-20T16:04:15;8.00;99.90
21459;DHT22;10891;49.350;19.386;2022-09-20T16:06:45;8.00;99.90
21459;DHT22;10891;49.350;19.386;2022-09-20T16:09:16;7.90;99.90
21459;DHT22;10891;49.350;19.386;2022-09-20T16:11:44;7.90;99.90
21459;DHT22;10891;49.350;19.386;2022-09-20T16:14:11;7.80;99.90
21459;DHT22;10891;49.350;19.386;2022-09-20T16:16:39;7.70;99.90
21459;DHT22;10891;49.350;19.386;2022-09-20T16:19:09;7.60;99.90
21459;DHT22;10891;49.350;19.386;2022-09-20T16:21:45;7.60;99.90
21459;DHT22;10891;49.350;19.386;2022-09-20T16:24:17;7.50;99.90
21459;DHT22;10891;49.350;19.386;2022-09-20T16:26:44;7.40;99.90
21459;DHT22;10891;49.350;19.386;2022-09-20T16:29:15;7.40;99.90
21459;DHT22;10891;49.350;19.386;2022-09-20T16:31:44;7.20;99.90
21459;DHT22;10891;49.350;19.386;2022-09-20T16:36:59;7.10;99.90
21459;DHT22;10891;49.350;19.386;2022-09-20T16:39:27;7.00;99.90
21459;DHT22;10891;49.350;19.386;2022-09-20T16:41:56;6.90;99.90
21459;DHT22;10891;49.350;19.386;2022-09-20T16:44:23;6.90;99.90
21459;DHT22;10891;49.350;19.386;2022-09-20T16:46:51;6.70;99.90
21459;DHT22;10891;49.350;19.386;2022-09-20T16:49:18;6.60;99.90
21459;DHT22;10891;49.350;19.386;2022-09-20T16:51:45;6.60;99.90
21459;DHT22;10891;49.350;19.386;2022-09-20T16:54:15;6.50;99.90
21459;DHT22;10891;49.350;19.386;2022-09-20T16:56:44;6.40;99.90
21459;DHT22;10891;49.350;19.386;2022-09-20T16:59:15;6.30;99.90